WetterOnline ( https://www.wetteronline.de )

Wetter aktuell Frankenheim

Aktuelles Wetter: Wasserkuppe (925m)

6-stündlich | Neueste Meldungen
Ortszeit Temperatur Wetter
Fr, 19.08. 8:00 14.6° C Nebel
Fr, 19.08. 2:00 14.9° C bewölkt
Do, 18.08. 20:00 16.2° C bedeckt
Do, 18.08. 14:00 15.8° C bedeckt
Do, 18.08. 8:00 16.0° C leichter Regen
Do, 18.08. 2:00 18.9° C wolkig
Mi, 17.08. 20:00 19.6° C wolkig
Mi, 17.08. 14:00 23.9° C wolkig
Ortszeit Temperatur Wetter
Fr, 19.08. 12:30 17.5° C bedeckt
Fr, 19.08. 12:20 17.5° C bedeckt
Fr, 19.08. 12:10 18.3° C bedeckt
Fr, 19.08. 12:00 16.6° C bedeckt
Fr, 19.08. 11:50 16.6° C bedeckt
Fr, 19.08. 11:40 16.3° C bewölkt
Fr, 19.08. 11:30 16.4° C bedeckt
Fr, 19.08. 11:00 15.5° C bedeckt
Fr, 19.08. 10:30 14.8° C bedeckt
Fr, 19.08. 10:00 14.6° C Nebel
Fr, 19.08. 9:30 14.5° C Nebel
Ortszeit Relative Feuchte Sichtweite
Fr, 19.08. 8:00 99% <100 m
Fr, 19.08. 2:00 96% 5.0 km
Do, 18.08. 20:00 94% 3.3 km
Do, 18.08. 14:00 88% 12 km
Do, 18.08. 8:00 82% 11 km
Do, 18.08. 2:00 55% 50 km
Mi, 17.08. 20:00 56% 55 km
Mi, 17.08. 14:00 43% 45 km
Ortszeit Relative Feuchte Sichtweite
Fr, 19.08. 12:30 71% 40 km
Fr, 19.08. 12:20 71% -
Fr, 19.08. 12:10 68% -
Fr, 19.08. 12:00 76% 45 km
Fr, 19.08. 11:50 76% -
Fr, 19.08. 11:40 77% -
Fr, 19.08. 11:30 79% 35 km
Fr, 19.08. 11:00 83% 30 km
Fr, 19.08. 10:30 87% 24 km
Fr, 19.08. 10:00 86% 30 km
Fr, 19.08. 9:30 95% 12 km
Ortszeit Niederschlagsmenge Niederschlagsart
Fr, 19.08. 8:00 0.1 l/m2 in 12 Std. Regen
Fr, 19.08. 2:00 0.0 l/m2 in 6 Std. -
Do, 18.08. 20:00 5 l/m2 in 12 Std. -
Do, 18.08. 14:00 5 l/m2 in 6 Std. Regen
Do, 18.08. 8:00 0.1 l/m2 in 12 Std. Regen
Do, 18.08. 2:00 0.0 l/m2 in 6 Std. -
Mi, 17.08. 20:00 0.0 l/m2 in 3 Std. Regen
Mi, 17.08. 14:00 0.1 l/m2 in 3 Std. Regen
Ortszeit Niederschlagsmenge Niederschlagsart
Fr, 19.08. 12:30 0.0 l/m2 in 1 Std. -
Fr, 19.08. 12:20 keine Meldung -
Fr, 19.08. 12:10 keine Meldung -
Fr, 19.08. 12:00 0.0 l/m2 in 1 Std. -
Fr, 19.08. 11:50 keine Meldung -
Fr, 19.08. 11:40 keine Meldung -
Fr, 19.08. 11:30 0.0 l/m2 in 1 Std. -
Fr, 19.08. 11:00 0.0 l/m2 in 1 Std. -
Fr, 19.08. 10:30 0.0 l/m2 in 1 Std. -
Fr, 19.08. 10:00 0.0 l/m2 in 1 Std. -
Fr, 19.08. 9:30 0.0 l/m2 in 1 Std. -
Ortszeit Stärke Spitze Richtung
km/h Bft. km/h Grad Sektor
Fr, 19.08. 8:00 28 4 33 350° N
Fr, 19.08. 2:00 22 4 37 20° N
Do, 18.08. 20:00 20 4 31 350° N
Do, 18.08. 14:00 20 4 26 10° N
Do, 18.08. 8:00 13 3 19 20° N
Do, 18.08. 2:00 13 3 20 330° NW
Mi, 17.08. 20:00 18 3 32 170° S
Mi, 17.08. 14:00 18 3 29 200° S
Ortszeit Stärke Spitze Richtung
km/h Bft. km/h Grad Sektor
Fr, 19.08. 12:30 28 4 35 10° N
Fr, 19.08. 12:20 28 4 - 10° N
Fr, 19.08. 12:10 29 5 - 360° N
Fr, 19.08. 12:00 24 4 31 360° N
Fr, 19.08. 11:50 24 4 - 360° N
Fr, 19.08. 11:40 24 4 - 350° N
Fr, 19.08. 11:30 22 4 32 360° N
Fr, 19.08. 11:00 25 4 36 350° N
Fr, 19.08. 10:30 28 4 35 360° N
Fr, 19.08. 10:00 26 4 35 360° N
Fr, 19.08. 9:30 28 4 33 360° N
Ortszeit Untergrenze Bedeckung Gattung
total tief tief mittel hoch
Fr, 19.08. 8:00 <30 m 8/8 0/8 - - -
Fr, 19.08. 2:00 1380 m 7/8 7/8 - - -
Do, 18.08. 20:00 90 m 8/8 8/8 - - -
Do, 18.08. 14:00 1410 m 8/8 8/8 - - -
Do, 18.08. 8:00 1800 m 7/8 7/8 - - -
Do, 18.08. 2:00 3600 m 6/8 6/8 - - -
Mi, 17.08. 20:00 8100 m 8/8 0/8 - - -
Mi, 17.08. 14:00 2100 m 8/8 1/8 - - -
Ortszeit Bedeckungsgrad in Achtel und Wolkenuntergrenze
Fr, 19.08. 12:30 7(810m) 8(2400m)
Fr, 19.08. 12:20 7(810m) 8(2400m)
Fr, 19.08. 12:10 8
Fr, 19.08. 12:00 1(300m) 8(1500m) 8(2100m)
Fr, 19.08. 11:50 1(300m) 8(1500m) 8(2100m)
Fr, 19.08. 11:40 7
Fr, 19.08. 11:30 2(240m) 8(2100m)
Fr, 19.08. 11:00 8(2100m)
Fr, 19.08. 10:30 8(1800m)
Fr, 19.08. 10:00 3(420m) 7(1500m) 8(2100m)
Fr, 19.08. 9:30 6(60m) 7(1500m) 8(1800m)
Ortszeit Stationsdruck (hPa) Tendenz (hPa in 3 Std.)
Fr, 19.08. 8:00 908 + 0,6
Fr, 19.08. 2:00 908 + 0,2
Do, 18.08. 20:00 908 0,0
Do, 18.08. 14:00 909 - 0,4
Do, 18.08. 8:00 909 + 0,1
Do, 18.08. 2:00 909 + 0,1
Mi, 17.08. 20:00 909 - 0,5
Mi, 17.08. 14:00 909 + 0,3
Ortszeit Stationsdruck (hPa) Tendenz (hPa in 3 Std.)
Fr, 19.08. 12:30 910 + 0,6
Fr, 19.08. 12:20 910 keine Meldung
Fr, 19.08. 12:10 909 keine Meldung
Fr, 19.08. 12:00 910 + 0,8
Fr, 19.08. 11:50 910 keine Meldung
Fr, 19.08. 11:40 910 keine Meldung
Fr, 19.08. 11:30 910 + 1,1
Fr, 19.08. 11:00 909 + 1,0
Fr, 19.08. 10:30 909 + 1,2
Fr, 19.08. 10:00 909 + 1,5
Fr, 19.08. 9:30 909 + 0,9
Ortszeit Schneehöhe (cm)
Fr, 19.08. 8:00 0
Fr, 19.08. 2:00 0
Do, 18.08. 20:00 0
Do, 18.08. 14:00 0
Do, 18.08. 8:00 0
Do, 18.08. 2:00 0
Mi, 17.08. 20:00 0
Mi, 17.08. 14:00 0
Ortszeit Schneehöhe (cm)
Fr, 19.08. 12:30 0
Fr, 19.08. 12:20 0
Fr, 19.08. 12:10 0
Fr, 19.08. 12:00 0
Fr, 19.08. 11:50 0
Fr, 19.08. 11:40 0
Fr, 19.08. 11:30 0
Fr, 19.08. 11:00 0
Fr, 19.08. 10:30 0
Fr, 19.08. 10:00 0
Fr, 19.08. 9:30 0
Link zu dieser Seite / Seite empfehlen

Das Wetter in ...